createdAt,value
2019-04-16T00:01:03.321Z,42.93
2019-04-16T00:03:33.239Z,43.20
2019-04-16T00:06:04.342Z,41.73
2019-04-16T00:08:37.831Z,43.87
2019-04-16T00:11:15.170Z,41.37
2019-04-16T00:13:46.240Z,40.07
2019-04-16T00:16:15.774Z,36.30
2019-04-16T00:18:56.618Z,36.10
2019-04-16T00:21:20.548Z,40.57
2019-04-16T00:23:54.525Z,38.43
2019-04-16T00:26:26.457Z,40.63
2019-04-16T00:28:55.116Z,36.23
2019-04-16T00:31:24.609Z,37.17
2019-04-16T00:33:54.056Z,38.73
2019-04-16T00:36:23.477Z,40.53
2019-04-16T00:38:54.113Z,41.43
2019-04-16T00:41:24.152Z,44.47
2019-04-16T00:43:54.241Z,39.33
2019-04-16T00:46:24.321Z,38.70
2019-04-16T00:48:53.750Z,37.90
2019-04-16T00:51:23.188Z,39.90
2019-04-16T00:53:52.617Z,43.93
2019-04-16T00:56:22.366Z,43.87
2019-04-16T00:58:53.003Z,42.57
2019-04-16T01:01:22.517Z,38.93
2019-04-16T01:03:51.971Z,43.53
2019-04-16T01:06:21.382Z,43.03
2019-04-16T01:08:54.955Z,47.73
2019-04-16T01:11:21.987Z,53.30
2019-04-16T01:13:53.218Z,56.77
2019-04-16T01:16:22.832Z,52.37
2019-04-16T01:18:52.255Z,55.47
2019-04-16T01:21:22.032Z,51.63
2019-04-16T01:23:51.465Z,51.13
2019-04-16T01:26:20.904Z,53.63
2019-04-16T01:28:52.318Z,54.07
2019-04-16T01:31:31.990Z,49.93
2019-04-16T01:34:05.977Z,52.43
2019-04-16T01:36:37.376Z,50.87
2019-04-16T01:39:17.602Z,47.80
2019-04-16T01:41:40.769Z,47.00
2019-04-16T01:44:10.378Z,41.57
2019-04-16T01:46:39.875Z,49.03
2019-04-16T01:49:10.225Z,48.13
2019-04-16T01:51:40.631Z,44.50
2019-04-16T01:54:10.436Z,46.10
2019-04-16T01:56:39.876Z,50.80
2019-04-16T01:59:09.280Z,48.33
2019-04-16T02:01:40.359Z,49.20
2019-04-16T02:04:09.956Z,42.73
2019-04-16T02:06:39.379Z,43.83
2019-04-16T02:09:21.717Z,50.87
2019-04-16T02:11:41.434Z,45.17
2019-04-16T02:14:11.574Z,52.33
2019-04-16T02:16:40.993Z,48.87
2019-04-16T02:19:10.405Z,48.73
2019-04-16T02:21:41.509Z,44.53
2019-04-16T02:24:10.985Z,41.87
2019-04-16T02:26:40.424Z,45.50
2019-04-16T02:29:09.838Z,39.13
2019-04-16T02:31:39.281Z,46.43
2019-04-16T02:34:08.815Z,48.03
2019-04-16T02:36:38.263Z,42.33
2019-04-16T02:39:09.957Z,47.73
2019-04-16T02:41:39.893Z,41.13
2019-04-16T02:44:14.034Z,48.00
2019-04-16T02:46:40.488Z,43.33
2019-04-16T02:49:10.239Z,48.67
2019-04-16T02:51:50.039Z,47.23
2019-04-16T02:54:21.081Z,47.63
2019-04-16T02:57:08.514Z,46.60
2019-04-16T02:59:45.696Z,50.17
2019-04-16T03:02:15.337Z,49.27
2019-04-16T03:04:49.222Z,48.23
2019-04-16T03:07:18.990Z,43.00
2019-04-16T03:10:00.664Z,38.57
2019-04-16T03:12:20.880Z,42.73
2019-04-16T03:14:51.167Z,49.50
2019-04-16T03:17:42.835Z,46.20
2019-04-16T03:20:16.301Z,41.07
2019-04-16T03:22:45.841Z,41.40
2019-04-16T03:25:15.404Z,45.13
2019-04-16T03:27:44.857Z,45.27
2019-04-16T03:30:14.565Z,47.73
2019-04-16T03:32:50.785Z,51.67
2019-04-16T03:35:25.477Z,48.57
2019-04-16T03:37:51.871Z,52.60
2019-04-16T03:40:24.610Z,52.83
2019-04-16T03:42:52.511Z,51.33
2019-04-16T03:45:21.953Z,48.37
2019-04-16T03:47:52.373Z,51.20
2019-04-16T03:50:21.986Z,44.67
2019-04-16T03:52:51.415Z,51.80
2019-04-16T03:55:25.451Z,52.80
2019-04-16T03:57:52.043Z,46.33
2019-04-16T04:00:21.689Z,45.73
2019-04-16T04:02:53.886Z,49.87
2019-04-16T04:05:22.281Z,44.30
2019-04-16T04:07:54.985Z,45.63
2019-04-16T04:10:30.559Z,45.90
2019-04-16T04:12:54.082Z,48.27
2019-04-16T04:15:26.370Z,45.47
2019-04-16T04:17:54.767Z,44.70
2019-04-16T04:20:24.640Z,49.13
2019-04-16T04:22:56.761Z,47.17
2019-04-16T04:25:25.200Z,45.53
2019-04-16T04:27:54.730Z,50.53
2019-04-16T04:30:28.635Z,44.90
2019-04-16T04:32:56.823Z,47.80
2019-04-16T04:35:26.252Z,50.13
2019-04-16T04:37:55.757Z,48.30
2019-04-16T04:40:25.228Z,48.37
2019-04-16T04:42:57.674Z,46.67
2019-04-16T04:45:25.826Z,49.30
2019-04-16T04:47:55.258Z,51.87
2019-04-16T04:50:44.001Z,49.07
2019-04-16T04:53:15.654Z,46.17
2019-04-16T04:55:44.564Z,46.30
2019-04-16T04:58:14.292Z,46.90
2019-04-16T05:00:43.723Z,47.43
2019-04-16T05:03:29.684Z,47.53
2019-04-16T05:06:01.666Z,47.53
2019-04-16T05:08:31.072Z,45.30
2019-04-16T05:11:03.006Z,46.83
2019-04-16T05:13:32.755Z,43.07
2019-04-16T05:16:02.774Z,45.93
2019-04-16T05:18:32.346Z,43.77
2019-04-16T05:21:01.772Z,47.43
2019-04-16T05:23:31.207Z,46.87
2019-04-16T05:26:04.462Z,44.20
2019-04-16T05:28:31.790Z,42.10
2019-04-16T05:31:01.212Z,44.13
2019-04-16T05:33:30.664Z,40.63
2019-04-16T05:36:00.093Z,43.93
2019-04-16T05:38:29.524Z,39.27
2019-04-16T05:41:12.213Z,43.27
2019-04-16T05:43:30.891Z,39.93
2019-04-16T05:46:00.491Z,37.40
2019-04-16T05:48:29.933Z,40.33
2019-04-16T05:51:00.625Z,40.53
2019-04-16T05:53:30.145Z,43.60
2019-04-16T05:56:06.900Z,39.90
2019-04-16T05:58:36.338Z,43.00
2019-04-16T06:01:07.528Z,41.53
2019-04-16T06:03:36.962Z,48.27
2019-04-16T06:06:06.405Z,42.53
2019-04-16T06:08:40.561Z,42.90
2019-04-16T06:11:07.309Z,39.17
2019-04-16T06:13:38.384Z,43.00
2019-04-16T06:16:09.503Z,42.50
2019-04-16T06:18:40.581Z,41.93
2019-04-16T06:21:27.942Z,41.93
2019-04-16T06:24:03.528Z,43.20
2019-04-16T06:26:37.530Z,41.57
2019-04-16T06:29:28.993Z,40.63
2019-04-16T06:32:15.618Z,40.43
2019-04-16T06:35:12.166Z,36.37
2019-04-16T06:37:45.682Z,41.97
2019-04-16T06:40:32.843Z,41.73
2019-04-16T06:43:06.575Z,40.20
2019-04-16T06:45:46.572Z,40.70
2019-04-16T06:48:20.480Z,45.73
2019-04-16T06:51:00.168Z,39.50
2019-04-16T06:53:33.904Z,39.07
2019-04-16T06:56:08.606Z,33.53
2019-04-16T06:59:32.462Z,31.83
2019-04-16T07:01:22.059Z,36.90
2019-04-16T07:03:59.538Z,28.97
2019-04-16T07:06:47.295Z,33.40
2019-04-16T07:09:25.701Z,33.33
2019-04-16T07:11:56.487Z,34.37
2019-04-16T07:14:25.966Z,34.20
2019-04-16T07:16:59.884Z,36.50
2019-04-16T07:19:27.151Z,30.60
2019-04-16T07:21:56.581Z,24.57
2019-04-16T07:24:30.179Z,29.93
2019-04-16T07:26:57.453Z,30.47
2019-04-16T07:29:33.016Z,33.17
2019-04-16T07:32:13.453Z,38.67
2019-04-16T07:34:44.832Z,33.87
2019-04-16T07:37:33.188Z,31.30
2019-04-16T07:40:10.013Z,32.27
2019-04-16T07:42:51.253Z,32.13
2019-04-16T07:45:13.364Z,30.20
2019-04-16T07:48:00.700Z,30.23
2019-04-16T07:50:46.506Z,28.47
2019-04-16T07:53:33.870Z,30.73
2019-04-16T07:56:20.237Z,29.07
2019-04-16T07:58:49.662Z,27.83
2019-04-16T08:01:19.102Z,33.43
2019-04-16T08:03:48.566Z,31.97
2019-04-16T08:06:17.993Z,32.83
2019-04-16T08:08:47.786Z,31.87
2019-04-16T08:11:17.250Z,27.63
2019-04-16T08:13:46.751Z,32.40
2019-04-16T08:16:23.061Z,26.93
2019-04-16T08:18:52.534Z,29.43
2019-04-16T08:21:22.751Z,34.37
2019-04-16T08:23:57.088Z,30.45
2019-04-16T08:26:26.542Z,26.63
2019-04-16T08:28:56.019Z,30.43
2019-04-16T08:31:27.105Z,30.77
2019-04-16T08:33:56.920Z,31.17
2019-04-16T08:36:26.352Z,32.57
2019-04-16T08:38:55.791Z,29.03
2019-04-16T08:41:25.633Z,28.37
2019-04-16T08:43:55.207Z,31.87
2019-04-16T08:46:24.624Z,31.50
2019-04-16T08:48:54.625Z,33.60
2019-04-16T08:51:30.697Z,29.83
2019-04-16T08:53:55.390Z,29.03
2019-04-16T08:56:25.194Z,32.77
2019-04-16T08:58:57.303Z,29.20
2019-04-16T09:01:27.525Z,31.90
2019-04-16T09:04:01.272Z,33.50
2019-04-16T09:06:28.186Z,30.37
2019-04-16T09:09:12.698Z,28.57
2019-04-16T09:11:36.166Z,29.10
2019-04-16T09:14:07.661Z,29.67
2019-04-16T09:16:57.251Z,33.73
2019-04-16T09:19:27.198Z,33.90
2019-04-16T09:21:56.612Z,31.37
2019-04-16T09:24:27.713Z,32.43
2019-04-16T09:27:01.543Z,27.90
2019-04-16T09:29:39.130Z,32.90
2019-04-16T09:32:10.916Z,30.73
2019-04-16T09:35:08.002Z,33.13
2019-04-16T09:37:29.882Z,35.67
2019-04-16T09:40:16.411Z,30.07
2019-04-16T09:42:37.763Z,35.50
2019-04-16T09:45:10.770Z,29.90
2019-04-16T09:47:40.296Z,28.17
2019-04-16T09:50:11.235Z,29.73
2019-04-16T09:52:41.553Z,32.93
2019-04-16T09:55:11.120Z,32.27
2019-04-16T09:57:40.889Z,28.37
2019-04-16T10:00:17.362Z,32.07
2019-04-16T10:02:46.455Z,29.33
2019-04-16T10:05:16.079Z,32.40
2019-04-16T10:07:45.520Z,32.07
2019-04-16T10:10:15.239Z,29.77
2019-04-16T10:12:44.653Z,29.03
2019-04-16T10:15:15.909Z,30.77
2019-04-16T10:17:45.339Z,31.67
2019-04-16T10:20:14.758Z,31.23
2019-04-16T10:22:44.246Z,31.40
2019-04-16T10:25:14.788Z,31.17
2019-04-16T10:27:49.166Z,31.80
2019-04-16T10:30:20.571Z,30.43
2019-04-16T10:32:50.007Z,33.57
2019-04-16T10:35:19.742Z,30.03
2019-04-16T10:37:49.193Z,34.20
2019-04-16T10:40:29.051Z,30.40
2019-04-16T10:43:16.579Z,30.90
2019-04-16T10:46:02.408Z,31.93
2019-04-16T10:48:33.485Z,28.60
2019-04-16T10:51:15.290Z,30.33
2019-04-16T10:53:58.013Z,30.67
2019-04-16T10:56:45.437Z,33.40
2019-04-16T10:59:32.484Z,29.90
2019-04-16T11:02:03.650Z,33.43
2019-04-16T11:04:37.190Z,28.37
2019-04-16T11:07:14.525Z,30.27
2019-04-16T11:09:44.204Z,33.17
2019-04-16T11:12:14.171Z,34.07
2019-04-16T11:14:43.631Z,32.67
2019-04-16T11:17:13.314Z,31.87
2019-04-16T11:19:42.764Z,32.67
2019-04-16T11:22:12.195Z,33.13
2019-04-16T11:24:41.636Z,31.67
2019-04-16T11:27:11.142Z,30.97
2019-04-16T11:29:42.071Z,30.43
2019-04-16T11:32:13.957Z,33.73
2019-04-16T11:34:43.421Z,30.67
2019-04-16T11:37:13.065Z,30.83
2019-04-16T11:39:42.491Z,33.33
2019-04-16T11:42:12.353Z,31.37
2019-04-16T11:44:41.854Z,38.87
2019-04-16T11:47:11.338Z,33.00
2019-04-16T11:49:40.781Z,33.03
2019-04-16T11:52:10.214Z,35.20
2019-04-16T11:54:39.668Z,32.67
2019-04-16T11:57:12.917Z,30.33
2019-04-16T12:00:07.564Z,34.23
2019-04-16T12:02:32.926Z,32.33
2019-04-16T12:05:04.101Z,32.27
2019-04-16T12:07:37.691Z,31.27
2019-04-16T12:10:28.334Z,36.23
2019-04-16T12:12:59.457Z,34.33
2019-04-16T12:15:32.354Z,36.40
2019-04-16T12:18:03.456Z,36.03
2019-04-16T12:20:46.819Z,32.50
2019-04-16T12:23:17.991Z,33.20
2019-04-16T12:26:08.746Z,37.93
2019-04-16T12:28:42.312Z,33.60
2019-04-16T12:31:17.311Z,34.03
2019-04-16T12:33:48.593Z,36.57
2019-04-16T12:36:26.150Z,36.57
2019-04-16T12:38:59.979Z,33.13
2019-04-16T12:41:46.629Z,36.83
2019-04-16T12:44:45.067Z,37.27
2019-04-16T12:47:12.538Z,36.37
2019-04-16T12:49:59.821Z,34.60
2019-04-16T12:52:33.532Z,36.07
2019-04-16T12:55:04.847Z,31.33
2019-04-16T12:57:35.959Z,32.60
2019-04-16T13:00:11.130Z,33.40
2019-04-16T13:02:44.863Z,38.20
2019-04-16T13:05:22.130Z,30.87
2019-04-16T13:07:53.198Z,31.07
2019-04-16T13:10:27.255Z,27.33
2019-04-16T13:13:03.792Z,24.40
2019-04-16T13:15:46.969Z,24.37
2019-04-16T13:18:20.994Z,27.60
2019-04-16T13:21:08.100Z,24.43
2019-04-16T13:23:42.260Z,27.93
2019-04-16T13:26:13.886Z,23.97
2019-04-16T13:28:43.537Z,26.47
2019-04-16T13:31:13.360Z,27.33
2019-04-16T13:33:43.646Z,26.67
2019-04-16T13:36:14.124Z,26.00
2019-04-16T13:38:48.087Z,25.43
2019-04-16T13:41:17.553Z,28.60
2019-04-16T13:43:51.431Z,30.13
2019-04-16T13:46:20.947Z,28.00
2019-04-16T13:48:52.101Z,29.97
2019-04-16T13:51:28.979Z,35.37
2019-04-16T13:54:11.612Z,30.77
2019-04-16T13:56:42.704Z,28.30
2019-04-16T13:59:13.843Z,24.57
2019-04-16T14:01:46.035Z,31.57
2019-04-16T14:04:15.785Z,33.07
2019-04-16T14:06:46.248Z,33.20
2019-04-16T14:09:15.930Z,30.07
2019-04-16T14:11:45.356Z,26.47
2019-04-16T14:14:18.169Z,32.13
2019-04-16T14:16:46.803Z,28.17
2019-04-16T14:19:16.770Z,30.93
2019-04-16T14:21:46.241Z,30.17
2019-04-16T14:24:15.971Z,28.77
2019-04-16T14:26:45.409Z,31.80
2019-04-16T14:29:14.908Z,32.90
2019-04-16T14:31:46.202Z,31.50
2019-04-16T14:34:29.720Z,31.40
2019-04-16T14:36:57.666Z,29.93
2019-04-16T14:39:34.738Z,37.10
2019-04-16T14:42:04.397Z,31.07
2019-04-16T14:44:41.280Z,32.50
2019-04-16T14:47:10.734Z,31.10
2019-04-16T14:49:40.621Z,30.87
2019-04-16T14:52:10.111Z,29.80
2019-04-16T14:54:46.987Z,33.37
2019-04-16T14:57:17.901Z,27.60
2019-04-16T14:59:49.029Z,27.83
2019-04-16T15:02:29.887Z,30.13
2019-04-16T15:05:03.816Z,33.73
2019-04-16T15:07:37.671Z,30.67
2019-04-16T15:10:27.836Z,34.37
2019-04-16T15:13:04.630Z,35.47
2019-04-16T15:15:35.703Z,31.73
2019-04-16T15:18:12.838Z,32.10
2019-04-16T15:20:43.941Z,36.73
2019-04-16T15:23:15.040Z,33.27
2019-04-16T15:26:02.479Z,35.27
2019-04-16T15:28:52.255Z,29.60
2019-04-16T15:31:39.683Z,32.93
2019-04-16T15:34:13.451Z,35.23
2019-04-16T15:37:00.642Z,38.10
2019-04-16T15:39:36.724Z,32.50
2019-04-16T15:42:16.682Z,34.03
2019-04-16T15:44:46.289Z,39.67
2019-04-16T15:47:33.591Z,36.13
2019-04-16T15:50:07.799Z,33.13
2019-04-16T15:52:41.643Z,35.63
2019-04-16T15:55:14.113Z,33.53
2019-04-16T15:58:04.628Z,35.37
2019-04-16T16:01:09.780Z,34.93
2019-04-16T16:03:43.460Z,36.93
2019-04-16T16:06:16.887Z,37.67
2019-04-16T16:09:03.763Z,37.30
2019-04-16T16:11:39.087Z,39.23
2019-04-16T16:14:08.582Z,39.00
2019-04-16T16:16:42.092Z,43.10
2019-04-16T16:19:12.008Z,37.83
2019-04-16T16:21:40.353Z,37.30
2019-04-16T16:24:11.339Z,40.33
2019-04-16T16:26:40.808Z,43.20
2019-04-16T16:29:10.599Z,37.90
2019-04-16T16:31:40.054Z,36.37
2019-04-16T16:34:09.667Z,42.23
2019-04-16T16:36:40.639Z,40.70
2019-04-16T16:39:10.732Z,41.73
2019-04-16T16:41:40.246Z,38.50
2019-04-16T16:44:09.691Z,38.53
2019-04-16T16:46:55.685Z,40.57
2019-04-16T16:49:11.990Z,43.23
2019-04-16T16:51:43.063Z,43.17
2019-04-16T16:54:14.252Z,40.60
2019-04-16T16:57:01.568Z,44.37
2019-04-16T16:59:30.124Z,44.57
2019-04-16T17:02:01.264Z,42.63
2019-04-16T17:04:32.324Z,43.83
2019-04-16T17:07:01.913Z,44.63
2019-04-16T17:09:32.972Z,42.23
2019-04-16T17:12:02.486Z,42.43
2019-04-16T17:14:36.475Z,43.30
2019-04-16T17:17:12.802Z,48.23
2019-04-16T17:19:34.648Z,45.43
2019-04-16T17:22:04.348Z,45.53
2019-04-16T17:24:33.803Z,47.77
2019-04-16T17:27:03.320Z,49.73
2019-04-16T17:29:32.836Z,45.00
2019-04-16T17:32:02.595Z,44.83
2019-04-16T17:34:32.011Z,48.63
2019-04-16T17:37:01.537Z,44.40
2019-04-16T17:39:32.601Z,45.57
2019-04-16T17:42:05.034Z,46.17
2019-04-16T17:44:36.730Z,50.90
2019-04-16T17:47:07.949Z,49.83
2019-04-16T17:49:55.370Z,49.67
2019-04-16T17:52:29.192Z,56.20
2019-04-16T17:55:00.312Z,49.70
2019-04-16T17:57:34.137Z,50.40
2019-04-16T18:00:23.091Z,48.00
2019-04-16T18:03:04.064Z,50.57
2019-04-16T18:05:36.297Z,48.10
2019-04-16T18:08:13.279Z,52.20
2019-04-16T18:10:47.036Z,53.07
2019-04-16T18:13:24.421Z,49.90
2019-04-16T18:16:04.804Z,53.27
2019-04-16T18:18:41.957Z,51.67
2019-04-16T18:21:29.243Z,50.90
2019-04-16T18:24:00.332Z,55.53
2019-04-16T18:26:34.111Z,47.23
2019-04-16T18:29:05.717Z,51.27
2019-04-16T18:31:37.182Z,52.90
2019-04-16T18:34:14.084Z,53.93
2019-04-16T18:36:48.234Z,48.87
2019-04-16T18:39:24.903Z,59.23
2019-04-16T18:42:12.054Z,49.80
2019-04-16T18:44:59.470Z,51.37
2019-04-16T18:47:30.618Z,49.57
2019-04-16T18:50:01.686Z,50.73
2019-04-16T18:52:31.163Z,49.13
2019-04-16T18:55:00.604Z,56.97
2019-04-16T18:57:30.022Z,55.17
2019-04-16T18:59:59.512Z,57.77
2019-04-16T19:02:30.788Z,56.77
2019-04-16T19:05:00.601Z,61.47
2019-04-16T19:07:30.096Z,53.70
2019-04-16T19:09:59.575Z,59.57
2019-04-16T19:12:29.110Z,53.93
2019-04-16T19:14:58.630Z,57.97
2019-04-16T19:17:28.104Z,57.43
2019-04-16T19:19:57.557Z,56.60
2019-04-16T19:22:26.981Z,60.93
2019-04-16T19:24:56.697Z,53.43
2019-04-16T19:27:27.940Z,60.37
2019-04-16T19:29:57.260Z,60.53
2019-04-16T19:32:27.840Z,58.73
2019-04-16T19:35:09.204Z,59.33
2019-04-16T19:37:29.755Z,59.57
2019-04-16T19:40:00.196Z,62.80
2019-04-16T19:42:29.991Z,58.53
2019-04-16T19:44:59.429Z,55.63
2019-04-16T19:47:28.859Z,58.67
2019-04-16T19:49:58.313Z,55.37
2019-04-16T19:52:27.749Z,52.47
2019-04-16T19:54:57.309Z,54.47
2019-04-16T19:57:27.449Z,46.80
2019-04-16T19:59:56.885Z,52.37
2019-04-16T20:02:26.407Z,46.87
2019-04-16T20:04:55.999Z,50.60
2019-04-16T20:07:25.597Z,44.50
2019-04-16T20:09:55.117Z,43.07
2019-04-16T20:12:25.044Z,41.00
2019-04-16T20:14:55.773Z,38.33
2019-04-16T20:17:25.264Z,34.70
2019-04-16T20:19:56.347Z,35.60
2019-04-16T20:22:27.176Z,35.30
2019-04-16T20:24:57.020Z,34.47
2019-04-16T20:27:26.695Z,33.50
2019-04-16T20:29:56.512Z,33.30
2019-04-16T20:32:27.610Z,32.77
2019-04-16T20:34:57.232Z,30.77
2019-04-16T20:37:26.708Z,30.67
2019-04-16T20:39:56.215Z,32.57
2019-04-16T20:42:25.647Z,33.10
2019-04-16T20:44:55.078Z,32.17
2019-04-16T20:47:24.802Z,30.60
2019-04-16T20:49:54.572Z,32.80
2019-04-16T20:52:24.426Z,38.07
2019-04-16T20:54:56.027Z,33.93
2019-04-16T20:57:26.421Z,35.07
2019-04-16T20:59:56.068Z,35.20
2019-04-16T21:02:27.147Z,36.53
2019-04-16T21:04:58.265Z,39.40
2019-04-16T21:07:27.756Z,39.77
2019-04-16T21:09:59.861Z,36.93
2019-04-16T21:12:28.462Z,39.00
2019-04-16T21:14:57.906Z,35.50
2019-04-16T21:17:27.330Z,38.50
2019-04-16T21:19:56.784Z,39.10
2019-04-16T21:22:27.838Z,46.50
2019-04-16T21:24:57.579Z,43.80
2019-04-16T21:27:27.185Z,40.23
2019-04-16T21:29:56.620Z,39.67
2019-04-16T21:32:36.728Z,47.13
2019-04-16T21:35:12.132Z,43.40
2019-04-16T21:37:52.485Z,46.90
2019-04-16T21:40:23.362Z,44.97
2019-04-16T21:42:53.889Z,46.13
2019-04-16T21:45:23.356Z,43.07
2019-04-16T21:47:54.985Z,47.90
2019-04-16T21:50:24.068Z,51.37
2019-04-16T21:52:55.670Z,51.47
2019-04-16T21:55:24.654Z,50.80
2019-04-16T21:57:54.092Z,56.40
2019-04-16T22:00:40.225Z,54.40
2019-04-16T22:03:11.393Z,51.70
2019-04-16T22:05:41.200Z,50.70
2019-04-16T22:08:10.910Z,54.37
2019-04-16T22:10:40.416Z,55.10
2019-04-16T22:13:09.869Z,57.13
2019-04-16T22:15:39.320Z,60.20
2019-04-16T22:18:09.927Z,63.37
2019-04-16T22:20:39.614Z,64.60
2019-04-16T22:23:09.143Z,65.57
2019-04-16T22:25:38.692Z,63.90
2019-04-16T22:28:11.452Z,61.60
2019-04-16T22:30:39.297Z,63.67
2019-04-16T22:33:08.730Z,68.00
2019-04-16T22:35:38.245Z,67.27
2019-04-16T22:38:13.072Z,68.23
2019-04-16T22:40:46.185Z,74.13
2019-04-16T22:43:20.170Z,68.07
2019-04-16T22:45:52.319Z,67.60
2019-04-16T22:48:21.878Z,69.70
2019-04-16T22:50:51.348Z,74.37
2019-04-16T22:53:20.780Z,69.97
2019-04-16T22:55:50.195Z,68.53
2019-04-16T22:58:23.585Z,70.07
2019-04-16T23:00:55.285Z,69.73
2019-04-16T23:03:25.016Z,65.50
2019-04-16T23:05:54.843Z,76.63
2019-04-16T23:08:24.257Z,68.57
2019-04-16T23:10:53.697Z,71.20
2019-04-16T23:13:23.136Z,74.30
2019-04-16T23:15:52.543Z,79.07
2019-04-16T23:18:22.022Z,81.50
2019-04-16T23:20:51.850Z,80.93
2019-04-16T23:23:21.285Z,83.30
2019-04-16T23:25:50.704Z,87.70
2019-04-16T23:28:20.119Z,88.43
2019-04-16T23:30:51.115Z,96.30
2019-04-16T23:33:21.092Z,93.47
2019-04-16T23:35:50.529Z,99.70
2019-04-16T23:38:20.282Z,95.30
2019-04-16T23:40:49.995Z,96.00
2019-04-16T23:43:33.199Z,111.13
2019-04-16T23:46:05.609Z,104.10
2019-04-16T23:48:37.056Z,108.07
2019-04-16T23:51:19.661Z,100.87
2019-04-16T23:53:53.448Z,110.17
2019-04-16T23:56:24.499Z,104.83
2019-04-16T23:59:01.348Z,107.13
